Latest Coastal Weather Observations for Kiama

IDN60701

Issued at 12:25 am EDT Sunday 23 November 2014 (issued every 10 minutes, with the page automatically refreshed every 10 minutes)

About coastal observations | Map of coastal stations | Coastal observations for NSW | Marine services | Other Formats
Station Details ID: 068242 Name: KIAMA (BOMBO HEADLAND) Lat: -34.65 Lon: 150.86 Height: 15.5 m
Data from the previous 72 hours. | See also: Recent months at Kiama
Date/Time
EDT
Temp

°C
Wind Pressure Rain
since 9am
mm
Weather Cloud Vis
km
Sea
Height
m
Swell
Dir
 
Speed
knots
Gust
knots
hPa Trend Height
m
Period
s
Dir
23/12:00am 19.1 WNW 4 6 - - 0.0 - - - - - - -
 
Date/Time
EDT
Temp

°C
Wind Pressure Rain
since 9am
mm
Weather Cloud Vis
km
Sea
Height
m
Swell
Dir
 
Speed
knots
Gust
knots
hPa Trend Height
m
Period
s
Dir
22/11:30pm 19.3 NW 3 5 - - 0.0 - - - - - - -
22/11:00pm 19.4 NW 4 5 - - 0.0 - - - - - - -
22/10:30pm 20.1 NNW 3 4 - - 0.0 - - - - - - -
22/10:00pm 20.4 N 8 11 - - 0.0 - - - - - - -
22/09:30pm 20.4 N 7 11 - - 0.0 - - - - - - -
22/09:00pm 20.5 N 8 11 - - 0.0 - - - - - - -
22/08:30pm 20.4 N 8 11 - - 0.0 - - - - - - -
22/08:00pm 20.4 N 11 14 - - 0.0 - - - - - - -
22/07:30pm 20.6 N 10 13 - - 0.0 - - - - - - -
22/07:00pm 20.6 N 12 15 - - 0.0 - - - - - - -
22/06:30pm 20.7 N 11 15 - - 0.0 - - - - - - -
22/06:00pm 21.1 NNE 10 13 - - 0.0 - - - - - - -
22/05:30pm 21.2 NNE 9 12 - - 0.0 - - - - - - -
22/05:00pm 21.0 NNE 10 13 - - 0.0 - - - - - - -
22/04:30pm 21.1 NNE 9 11 - - 0.0 - - - - - - -
22/04:00pm 21.4 NNE 10 12 - - 0.0 - - - - - - -
22/03:30pm 22.2 NNE 7 10 - - 0.0 - - - - - - -
22/03:00pm 22.9 NE 7 10 - - 0.0 - - - - - - -
22/02:30pm 21.9 NNE 8 10 - - 0.0 - - - - - - -
22/02:00pm 22.7 NE 9 11 - - 0.0 - - - - - - -
22/01:30pm 23.0 NNE 9 12 - - 0.0 - - - - - - -
22/01:00pm 22.5 NE 9 11 - - 0.0 - - - - - - -
22/12:30pm 22.5 NE 6 10 - - 0.0 - - - - - - -
22/12:00pm 22.3 NE 6 10 - - 0.0 - - - - - - -
22/11:30am 22.6 NE 6 10 - - 0.0 - - - - - - -
22/11:00am 22.3 ENE 8 11 - - 0.0 - - - - - - -
22/10:30am 22.3 ENE 5 8 - - 0.0 - - - - - - -
22/10:00am 22.4 NE 3 5 - - 0.0 - - - - - - -
22/09:30am 21.7 NE 4 7 - - 0.0 - - - - - - -
22/09:00am 21.3 ENE 2 4 - - 0.0 - - - - - - -
22/08:30am 20.5 SE 2 4 - - 0.0 - - - - - - -
22/08:00am 20.6 SE 2 4 - - 0.0 - - - - - - -
22/07:30am 19.8 S 2 5 - - 0.0 - - - - - - -
22/07:00am 19.1 SW 1 2 - - 0.0 - - - - - - -
22/06:30am 18.4 SSW 5 6 - - 0.0 - - - - - - -
22/06:00am 18.2 SSW 4 6 - - 0.0 - - - - - - -
22/05:30am 18.1 SSW 3 5 - - 0.0 - - - - - - -
22/05:00am 18.8 SW 3 5 - - 0.0 - - - - - - -
22/04:30am 19.0 SSW 5 6 - - 0.0 - - - - - - -
22/04:00am 19.0 SSW 3 5 - - 0.0 - - - - - - -
22/03:30am 19.0 SSW 3 4 - - 0.0 - - - - - - -
22/03:00am 18.9 SSW 4 6 - - 0.0 - - - - - - -
22/02:30am 19.3 SSW 5 6 - - 0.0 - - - - - - -
22/02:00am 19.6 S 6 8 - - 0.0 - - - - - - -
22/01:30am 19.6 S 9 12 - - 0.0 - - - - - - -
22/01:00am 19.8 S 7 10 - - 0.0 - - - - - - -
22/12:30am 19.7 SSE 14 16 - - 0.0 - - - - - - -
22/12:00am 19.9 S 13 16 - - 0.0 - - - - - - -
 
Date/Time
EDT
Temp

°C
Wind Pressure Rain
since 9am
mm
Weather Cloud Vis
km
Sea
Height
m
Swell
Dir
 
Speed
knots
Gust
knots
hPa Trend Height
m
Period
s
Dir
21/11:30pm 19.9 S 15 18 - - 0.0 - - - - - - -
21/11:00pm 19.9 S 15 19 - - 0.0 - - - - - - -
21/10:30pm 20.3 S 15 19 - - 0.0 - - - - - - -
21/10:00pm 20.4 S 15 20 - - 0.0 - - - - - - -
21/09:30pm 20.5 S 15 20 - - 0.0 - - - - - - -
21/09:00pm 20.5 S 15 20 - - 0.0 - - - - - - -
21/08:30pm 20.7 S 16 21 - - 0.0 - - - - - - -
21/08:00pm 20.8 S 16 22 - - 0.0 - - - - - - -
21/07:30pm 21.0 S 17 21 - - 0.0 - - - - - - -
21/07:00pm 21.3 S 19 23 - - 0.0 - - - - - - -
21/06:30pm 21.9 S 18 23 - - 0.0 - - - - - - -
21/06:00pm 22.5 S 16 21 - - 0.0 - - - - - - -
21/05:30pm 22.8 S 17 22 - - 0.0 - - - - - - -
21/05:00pm 22.9 S 16 20 - - 0.0 - - - - - - -
21/04:30pm 23.2 SSE 17 21 - - 0.0 - - - - - - -
21/04:27pm 23.3 SSE 15 21 - - 0.0 - - - - - - -
21/04:00pm 24.8 E 3 5 - - 0.0 - - - - - - -
21/03:30pm 24.9 ESE 2 5 - - 0.0 - - - - - - -
21/03:00pm 25.2 E 3 5 - - 0.0 - - - - - - -
21/02:30pm 25.2 ENE 4 7 - - 0.0 - - - - - - -
21/02:00pm 25.1 E 4 6 - - 0.0 - - - - - - -
21/01:30pm 24.6 E 4 6 - - 0.0 - - - - - - -
21/01:00pm 24.4 ESE 4 5 - - 0.0 - - - - - - -
21/12:30pm 24.8 ENE 4 6 - - 0.0 - - - - - - -
21/12:00pm 24.5 NE 5 7 - - 0.0 - - - - - - -
21/11:30am 24.4 NE 6 10 - - 0.0 - - - - - - -
21/11:00am 24.3 NE 5 7 - - 0.0 - - - - - - -
21/10:30am 23.5 SE 2 4 - - 0.0 - - - - - - -
21/10:00am 23.4 ESE 4 5 - - 0.0 - - - - - - -
21/09:30am 22.9 SSE 5 7 - - 0.0 - - - - - - -
21/09:00am 21.7 SSE 11 12 - - 0.0 - - - - - - -
21/08:30am 22.1 S 12 14 - - 0.0 - - - - - - -
21/08:00am 23.0 S 7 10 - - 0.0 - - - - - - -
21/07:30am 22.2 S 5 8 - - 0.0 - - - - - - -
21/07:00am 21.6 S 8 10 - - 0.0 - - - - - - -
21/06:30am 21.4 S 8 11 - - 0.0 - - - - - - -
21/06:00am 21.6 S 10 13 - - 0.0 - - - - - - -
21/05:30am 20.5 NNE 2 5 - - 0.0 - - - - - - -
21/05:00am 20.6 S 8 14 - - 0.0 - - - - - - -
21/04:30am 21.0 S 15 21 - - 0.0 - - - - - - -
21/04:00am 22.6 S 18 27 - - 0.0 - - - - - - -
21/03:52am 23.7 S 17 27 - - 0.0 - - - - - - -
21/03:51am 23.3 S 15 22 - - 0.0 - - - - - - -
21/03:30am 21.3 N 6 9 - - 0.0 - - - - - - -
21/03:00am 21.2 NNW 6 10 - - 0.0 - - - - - - -
21/02:30am 20.7 W 4 7 - - 0.0 - - - - - - -
21/02:00am 20.7 NNW 4 6 - - 0.0 - - - - - - -
21/01:30am 20.4 N 6 7 - - 0.0 - - - - - - -
21/01:00am 20.4 N 6 7 - - 0.0 - - - - - - -
21/12:30am 20.6 N 7 8 - - 0.0 - - - - - - -
21/12:00am 20.9 N 6 7 - - 0.0 - - - - - - -
 
Date/Time
EDT
Temp

°C
Wind Pressure Rain
since 9am
mm
Weather Cloud Vis
km
Sea
Height
m
Swell
Dir
 
Speed
knots
Gust
knots
hPa Trend Height
m
Period
s
Dir
20/11:30pm 20.6 N 6 7 - - 0.0 - - - - - - -
20/11:00pm 20.5 N 6 7 - - 0.0 - - - - - - -
20/10:30pm 23.1 NW 5 6 - - 0.0 - - - - - - -
20/10:00pm 22.4 WNW 6 7 - - 0.0 - - - - - - -
20/09:30pm 21.6 WNW 3 7 - - 0.0 - - - - - - -
20/09:00pm 21.3 N 4 6 - - 0.0 - - - - - - -
20/08:30pm 21.4 N 6 8 - - 0.0 - - - - - - -
20/08:00pm 21.4 N 6 9 - - 0.0 - - - - - - -
20/07:30pm 22.0 N 10 13 - - 0.0 - - - - - - -
20/07:00pm 22.8 N 9 12 - - 0.0 - - - - - - -
20/06:30pm 23.5 N 9 12 - - 0.0 - - - - - - -
20/06:00pm 23.6 N 8 11 - - 0.0 - - - - - - -
20/05:30pm 23.5 N 8 11 - - 0.0 - - - - - - -
20/05:00pm 23.3 N 9 13 - - 0.0 - - - - - - -
20/04:30pm 23.3 N 10 14 - - 0.0 - - - - - - -
20/04:00pm 23.4 N 11 16 - - 0.0 - - - - - - -
20/03:30pm 23.7 N 10 13 - - 0.0 - - - - - - -
20/03:00pm 23.5 N 10 13 - - 0.0 - - - - - - -
20/02:30pm 24.1 N 10 12 - - 0.0 - - - - - - -
20/02:00pm 24.3 N 6 11 - - 0.0 - - - - - - -
20/01:30pm 24.6 NNE 8 12 - - 0.0 - - - - - - -
20/01:00pm 23.7 NNE 10 14 - - 0.0 - - - - - - -
20/12:30pm 24.0 N 10 13 - - 0.0 - - - - - - -
20/12:00pm 23.4 NNE 11 16 - - 0.0 - - - - - - -
20/11:30am 23.3 NNE 11 15 - - 0.0 - - - - - - -
20/11:00am 23.0 NNE 11 14 - - 0.0 - - - - - - -
20/10:30am 22.8 NNE 11 15 - - 0.0 - - - - - - -
20/10:00am 22.8 NNE 8 12 - - 0.0 - - - - - - -
20/09:30am 22.2 N 9 12 - - 0.0 - - - - - - -
20/09:00am 22.3 N 9 13 - - 0.0 - - - - - - -
20/08:30am 22.2 NNE 9 13 - - 0.0 - - - - - - -
20/08:00am 22.2 NNE 6 10 - - 0.0 - - - - - - -
20/07:30am 21.2 N 7 10 - - 0.0 - - - - - - -
20/07:00am 20.5 N 6 8 - - 0.0 - - - - - - -
20/06:30am 19.9 N 4 8 - - 0.0 - - - - - - -
20/06:00am 19.8 NNW 7 10 - - 0.0 - - - - - - -
20/05:30am 19.3 N 7 11 - - 0.0 - - - - - - -
20/05:00am 18.9 NW 5 7 - - 0.0 - - - - - - -
20/04:30am 19.5 NNW 7 9 - - 0.0 - - - - - - -
20/04:00am 19.8 NNW 6 9 - - 0.0 - - - - - - -
20/03:30am 20.4 NNW 12 16 - - 0.0 - - - - - - -
20/03:00am 20.4 NNW 12 18 - - 0.0 - - - - - - -
20/02:30am 20.2 NNW 8 13 - - 0.0 - - - - - - -
20/02:00am 19.8 NNW 8 11 - - 0.0 - - - - - - -
20/01:30am 19.9 NNW 8 13 - - 0.0 - - - - - - -
20/01:00am 20.0 NNW 10 15 - - 0.0 - - - - - - -
20/12:30am 19.8 N 8 14 - - 0.0 - - - - - - -

Other Formats:

Comma delimited format used in spreadsheet applications
http://www.bom.gov.au/fwo/IDN60701/IDN60701.95749.axf

JavaScript Object Notation format (JSON) in row-major order
http://www.bom.gov.au/fwo/IDN60701/IDN60701.95749.json